Time;durP1;ratioP1;P1;durP2;ratioP2;P2;SDS_P1;SDS_P2;PMS_P1;PMS_P2;Temp;Humidity;BMP_temperature;BMP_pressure;BME280_temperature;BME280_humidity;BME280_pressure;Samples;Min_cycle;Max_cycle;Signal;HPM_P1;HPM_P2
2022/07/20 00:02:25;;;;;;;;;;;;;;;20.27;76.20;98638.06;1711077;82;22309;-84
2022/07/20 00:04:52;;;;;;;;;;;;;;;20.35;76.43;98642.08;1711956;82;21024;-84
2022/07/20 00:07:19;;;;;;;;;;;;;;;20.36;76.49;98630.45;1709740;82;25125;-84
2022/07/20 00:12:35;;;;;;;;;;;;;;;20.33;76.79;98632.13;1712330;82;24661;-85
2022/07/20 00:15:02;;;;;;;;;;;;;;;20.31;76.84;98638.09;1712003;82;20828;-85
2022/07/20 00:17:36;;;;;;;;;;;;;;;20.28;76.91;98640.23;1713246;82;25989;-84
2022/07/20 00:20:05;;;;;;;;;;;;;;;20.30;77.12;98636.89;1712223;82;24501;-84
2022/07/20 00:22:33;;;;;;;;;;;;;;;20.24;77.17;98634.88;1713823;82;20195;-84
2022/07/20 00:25:02;;;;;;;;;;;;;;;20.26;77.42;98638.22;1710825;82;24723;-85
2022/07/20 00:27:28;;;;;;;;;;;;;;;20.25;77.64;98644.03;1703511;84;22015;-84
2022/07/20 00:29:54;;;;;;;;;;;;;;;20.05;77.70;98642.66;1701948;82;20974;-84
2022/07/20 00:32:20;;;;;;;;;;;;;;;19.85;77.81;98645.26;1697890;83;24677;-85
2022/07/20 00:34:46;;;;;;;;;;;;;;;19.67;78.06;98644.02;1698027;83;20266;-84
2022/07/20 00:37:12;;;;;;;;;;;;;;;19.52;78.35;98643.79;1697027;83;20828;-84
2022/07/20 00:39:38;;;;;;;;;;;;;;;19.44;78.81;98646.36;1698562;84;20286;-84
2022/07/20 00:42:04;;;;;;;;;;;;;;;19.37;79.20;98647.13;1698335;84;21029;-84
2022/07/20 00:44:30;;;;;;;;;;;;;;;19.36;79.66;98646.33;1698091;84;20851;-84
2022/07/20 00:46:57;;;;;;;;;;;;;;;19.41;80.05;98648.50;1698814;84;20321;-84
2022/07/20 00:49:22;;;;;;;;;;;;;;;19.44;80.45;98645.03;1698249;84;24764;-85
2022/07/20 00:51:48;;;;;;;;;;;;;;;19.42;80.82;98644.34;1698374;84;20250;-84
2022/07/20 00:54:15;;;;;;;;;;;;;;;19.45;81.25;98644.08;1697756;83;26032;-85
2022/07/20 00:56:43;;;;;;;;;;;;;;;19.45;81.53;98636.60;1697810;84;20196;-85
2022/07/20 00:59:10;;;;;;;;;;;;;;;19.56;81.93;98638.98;1694227;84;21002;-85
2022/07/20 01:01:36;;;;;;;;;;;;;;;19.61;82.15;98637.52;1696829;84;25058;-84
2022/07/20 01:04:02;;;;;;;;;;;;;;;19.46;82.08;98635.62;1697216;84;22003;-84
2022/07/20 01:06:28;;;;;;;;;;;;;;;19.34;82.20;98633.70;1697290;84;26133;-84
2022/07/20 01:08:55;;;;;;;;;;;;;;;19.41;82.56;98633.41;1697972;84;24438;-84
2022/07/20 01:11:22;;;;;;;;;;;;;;;19.55;82.86;98628.02;1698089;84;20560;-84
2022/07/20 01:13:55;;;;;;;;;;;;;;;19.58;82.98;98634.36;1697971;83;24748;-84
2022/07/20 01:16:21;;;;;;;;;;;;;;;19.55;83.01;98633.33;1696719;83;21961;-84
2022/07/20 01:18:47;;;;;;;;;;;;;;;19.62;83.12;98634.37;1697292;83;21225;-84
2022/07/20 01:21:13;;;;;;;;;;;;;;;19.70;83.27;98630.41;1697940;84;20254;-84
2022/07/20 01:23:39;;;;;;;;;;;;;;;19.73;83.29;98622.63;1698312;84;20300;-84
2022/07/20 01:26:05;;;;;;;;;;;;;;;19.77;83.32;98626.62;1697924;84;20833;-84
2022/07/20 01:28:31;;;;;;;;;;;;;;;19.72;83.34;98632.91;1698691;84;20856;-85
2022/07/20 01:31:07;;;;;;;;;;;;;;;19.57;83.31;98626.89;1714020;82;25939;-84
2022/07/20 01:33:33;;;;;;;;;;;;;;;19.40;83.35;98623.78;1706917;82;24473;-84
2022/07/20 01:35:59;;;;;;;;;;;;;;;19.31;83.48;98630.53;1713971;82;20318;-85
2022/07/20 01:38:25;;;;;;;;;;;;;;;19.40;83.77;98629.09;1718635;82;20285;-85
2022/07/20 01:40:58;;;;;;;;;;;;;;;19.45;84.00;98622.84;1710633;82;20226;-85
2022/07/20 01:43:29;;;;;;;;;;;;;;;19.46;84.31;98630.31;1711079;82;26132;-85
2022/07/20 01:45:55;;;;;;;;;;;;;;;19.43;84.58;98631.41;1711365;82;24805;-85
2022/07/20 01:48:21;;;;;;;;;;;;;;;19.40;84.81;98626.44;1709415;82;20800;-85
2022/07/20 01:50:48;;;;;;;;;;;;;;;19.34;85.03;98625.73;1711112;81;20273;-86
2022/07/20 01:53:14;;;;;;;;;;;;;;;19.32;85.24;98625.54;1714025;82;22308;-85
2022/07/20 01:55:50;;;;;;;;;;;;;;;19.37;85.44;98630.71;1706153;83;20900;-86
2022/07/20 01:58:16;;;;;;;;;;;;;;;19.40;85.44;98627.77;1705527;83;25169;-85
2022/07/20 02:00:42;;;;;;;;;;;;;;;19.31;85.32;98631.34;1716111;82;20305;-85
2022/07/20 02:03:08;;;;;;;;;;;;;;;19.16;85.33;98628.93;1708349;82;20317;-85
2022/07/20 02:05:34;;;;;;;;;;;;;;;19.11;85.48;98629.90;1716143;82;20792;-85
2022/07/20 02:08:00;;;;;;;;;;;;;;;19.15;85.76;98626.77;1711367;82;21215;-84
2022/07/20 02:10:26;;;;;;;;;;;;;;;19.16;85.90;98629.77;1704078;84;20856;-85
2022/07/20 02:12:52;;;;;;;;;;;;;;;19.25;86.11;98635.14;1718277;82;20573;-85
2022/07/20 02:18:07;;;;;;;;;;;;;;;19.28;86.14;98627.69;1716882;82;21980;-85
2022/07/20 02:20:33;;;;;;;;;;;;;;;19.28;86.14;98632.99;1716820;82;26099;-85
2022/07/20 02:23:03;;;;;;;;;;;;;;;19.30;86.17;98628.37;1707580;82;24440;-85
2022/07/20 02:25:31;;;;;;;;;;;;;;;19.34;86.28;98627.06;1705568;83;20330;-84
2022/07/20 02:27:57;;;;;;;;;;;;;;;19.36;86.35;98631.73;1711699;82;24746;-84
2022/07/20 02:30:23;;;;;;;;;;;;;;;19.30;86.35;98624.39;1719092;81;22028;-84
2022/07/20 02:32:52;;;;;;;;;;;;;;;19.13;86.34;98624.78;1735950;82;26012;-84
2022/07/20 02:35:18;;;;;;;;;;;;;;;18.96;86.45;98622.17;1732320;82;24723;-84
2022/07/20 02:37:45;;;;;;;;;;;;;;;18.82;86.65;98629.37;1734118;82;20849;-84
2022/07/20 02:40:11;;;;;;;;;;;;;;;18.79;86.93;98623.88;1725989;82;24760;-84
2022/07/20 02:42:43;;;;;;;;;;;;;;;18.83;87.25;98626.55;1730775;82;21967;-85
2022/07/20 02:45:10;;;;;;;;;;;;;;;18.85;87.43;98630.38;1734958;82;26677;-85
2022/07/20 02:47:43;;;;;;;;;;;;;;;18.88;87.60;98623.42;1733953;82;24859;-84
2022/07/20 02:50:11;;;;;;;;;;;;;;;18.89;87.74;98638.36;1728410;82;20238;-84
2022/07/20 02:52:39;;;;;;;;;;;;;;;18.93;87.90;98638.41;1722893;82;24736;-84
2022/07/20 02:55:05;;;;;;;;;;;;;;;18.96;88.06;98642.06;1724240;82;22115;-84
2022/07/20 02:57:31;;;;;;;;;;;;;;;18.91;88.09;98643.86;1735790;80;26572;-84
2022/07/20 02:59:59;;;;;;;;;;;;;;;18.76;88.18;98643.56;1724098;82;24476;-84
2022/07/20 03:02:25;;;;;;;;;;;;;;;18.55;88.35;98640.89;1695024;84;20330;-84
2022/07/20 03:04:51;;;;;;;;;;;;;;;18.42;88.72;98641.75;1743415;81;20344;-84
2022/07/20 03:07:17;;;;;;;;;;;;;;;18.31;89.11;98636.19;1722903;82;20787;-84
2022/07/20 03:09:43;;;;;;;;;;;;;;;18.25;89.50;98636.29;1727942;82;20981;-85
2022/07/20 03:12:09;;;;;;;;;;;;;;;18.39;90.04;98633.59;1713837;82;24378;-84
2022/07/20 03:14:35;;;;;;;;;;;;;;;18.54;90.46;98632.13;1740500;82;20224;-84
2022/07/20 03:17:01;;;;;;;;;;;;;;;18.66;90.62;98641.49;1721522;82;20847;-85
2022/07/20 03:19:28;;;;;;;;;;;;;;;18.73;90.72;98635.09;1727062;82;20201;-86
2022/07/20 03:21:54;;;;;;;;;;;;;;;18.72;90.67;98639.55;1721111;82;26136;-85
2022/07/20 03:24:19;;;;;;;;;;;;;;;18.67;90.69;98637.86;1729819;82;24464;-86
2022/07/20 03:26:45;;;;;;;;;;;;;;;18.56;90.85;98635.45;1718346;82;20316;-85
2022/07/20 03:29:12;;;;;;;;;;;;;;;18.50;91.08;98643.13;1727221;82;24822;-86
2022/07/20 03:31:38;;;;;;;;;;;;;;;18.41;91.29;98644.89;1719382;82;20849;-85
2022/07/20 03:34:04;;;;;;;;;;;;;;;18.47;91.71;98641.64;1709396;82;26200;-85
2022/07/20 03:36:30;;;;;;;;;;;;;;;18.61;92.04;98645.58;1713044;82;20329;-85
2022/07/20 03:38:56;;;;;;;;;;;;;;;18.72;92.37;98651.98;1713092;81;20227;-85
2022/07/20 03:41:22;;;;;;;;;;;;;;;18.85;92.58;98652.92;1709364;82;20241;-85
2022/07/20 03:43:49;;;;;;;;;;;;;;;18.95;92.67;98658.96;1711052;82;20772;-85
2022/07/20 03:46:18;;;;;;;;;;;;;;;19.03;92.75;98657.71;1717667;82;25943;-85
2022/07/20 03:48:44;;;;;;;;;;;;;;;19.13;92.77;98657.11;1713977;82;24629;-85
2022/07/20 03:51:10;;;;;;;;;;;;;;;19.22;92.85;98657.00;1705946;82;20238;-85
2022/07/20 03:53:36;;;;;;;;;;;;;;;19.36;93.00;98659.59;1710973;82;20333;-85
2022/07/20 03:56:02;;;;;;;;;;;;;;;19.49;93.05;98661.84;1714869;82;22017;-86
2022/07/20 03:58:28;;;;;;;;;;;;;;;19.62;93.04;98664.91;1706776;82;21063;-85
2022/07/20 04:00:55;;;;;;;;;;;;;;;19.74;93.00;98663.64;1711583;82;20869;-85
2022/07/20 04:03:23;;;;;;;;;;;;;;;19.83;92.91;98662.67;1714369;82;20242;-85
2022/07/20 04:05:49;;;;;;;;;;;;;;;19.75;92.84;98658.64;1711464;82;24780;-86
2022/07/20 04:08:15;;;;;;;;;;;;;;;19.67;92.95;98659.11;1714664;82;20908;-85
2022/07/20 04:10:41;;;;;;;;;;;;;;;19.69;93.15;98655.81;1710234;82;21138;-85
2022/07/20 04:13:07;;;;;;;3.40;2.30;;;;;;;19.73;93.44;98657.15;1699513;83;42356;-85
2022/07/20 04:15:33;;;;;;;4.05;2.98;;;;;;;19.89;93.89;98662.53;1705271;82;28149;-85
2022/07/20 04:18:05;;;;;;;4.62;2.50;;;;;;;20.10;94.19;98662.93;1712746;82;28097;-86
2022/07/20 04:20:31;;;;;;;3.70;3.08;;;;;;;20.32;94.37;98667.67;1699642;82;28256;-85
2022/07/20 04:22:57;;;;;;;5.95;2.60;;;;;;;20.49;94.47;98667.70;1698526;83;28051;-86
2022/07/20 04:25:23;;;;;;;6.33;2.50;;;;;;;20.63;94.35;98665.22;1704142;81;28108;-86
2022/07/20 04:27:52;;;;;;;;;;;;;;;20.80;94.35;98665.56;1703519;82;28076;-86
2022/07/20 04:30:18;;;;;;;;;;;;;;;20.97;94.22;98666.89;1717618;82;24918;-85
2022/07/20 04:32:44;;;;;;;;;;;;;;;21.10;93.98;98667.23;1733050;82;20301;-86
2022/07/20 04:35:10;;;;;;;;;;;;;;;21.17;93.73;98661.58;1731124;82;26033;-86
2022/07/20 04:37:37;;;;;;;;;;;;;;;21.25;93.46;98667.73;1728507;82;24412;-86
2022/07/20 04:40:04;;;;;;;;;;;;;;;21.25;93.07;98671.73;1730510;82;20464;-87
2022/07/20 04:42:31;;;;;;;;;;;;;;;21.24;92.66;98673.22;1729340;82;24294;-85
2022/07/20 04:44:57;;;;;;;;;;;;;;;21.23;92.30;98672.89;1735513;82;22222;-87
2022/07/20 04:47:24;;;;;;;;;;;;;;;21.23;92.00;98672.39;1737235;82;21711;-86
2022/07/20 04:49:56;;;;;;;;;;;;;;;21.27;91.79;98676.37;1731768;82;24716;-85
2022/07/20 04:52:27;;;;;;;;;;;;;;;21.24;91.58;98679.38;1732110;82;20265;-85
2022/07/20 04:54:50;;;;;;;;;;;;;;;21.23;91.52;98689.69;1733892;82;24874;-85
2022/07/20 04:57:16;;;;;;;;;;;;;;;21.24;91.56;98689.20;1729672;82;20240;-85
2022/07/20 04:59:42;;;;;;;;;;;;;;;21.25;91.55;98685.04;1740335;80;21007;-85
2022/07/20 05:02:12;;;;;;;;;;;;;;;21.28;91.71;98690.02;1731666;82;20248;-86
2022/07/20 05:04:38;;;;;;;;;;;;;;;21.33;91.88;98680.72;1736082;82;20337;-86
2022/07/20 05:07:04;;;;;;;;;;;;;;;21.35;91.91;98689.34;1732207;82;24705;-86
2022/07/20 05:09:30;;;;;;;;;;;;;;;21.23;92.13;98687.03;1735320;82;22229;-86
2022/07/20 05:12:03;;;;;;;;;;;;;;;21.06;92.51;98681.35;1734262;82;20970;-86
2022/07/20 05:14:31;;;;;;;;;;;;;;;20.94;92.97;98677.88;1741204;82;24549;-86
2022/07/20 05:16:57;;;;;;;;;;;;;;;20.84;93.39;98681.52;1738735;82;20185;-86
2022/07/20 05:19:26;;;;;;;;;;;;;;;20.80;93.92;98682.86;1739618;82;20717;-85
2022/07/20 05:21:56;;;;;;;;;;;;;;;20.75;94.56;98681.20;1741982;82;22094;-85
2022/07/20 05:24:22;;;;;;;;;;;;;;;20.73;95.26;98685.84;1732772;82;26012;-85
2022/07/20 05:26:50;;;;;;;;;;;;;;;20.83;96.04;98686.53;1740225;82;20844;-85
2022/07/20 05:29:17;;;;;;;;;;;;;;;21.00;96.81;98688.67;1726538;82;20195;-86
2022/07/20 05:31:46;;;;;;;;;;;;;;;21.21;97.49;98693.54;1713122;81;39674;-86
2022/07/20 05:34:12;;;;;;;;;;;;;;;21.41;97.95;98692.67;1741390;81;22100;-86
2022/07/20 05:36:38;;;;;;;;;;;;;;;21.61;98.32;98693.95;1741179;81;21041;-85
2022/07/20 05:39:03;;;;;;;;;;;;;;;21.73;98.49;98699.24;1739220;81;20339;-85
2022/07/20 05:41:29;;;;;;;;;;;;;;;21.74;98.43;98694.25;1736410;81;20816;-86
2022/07/20 05:44:04;;;;;;;;;;;;;;;21.82;98.62;98697.41;1736732;81;20784;-86
2022/07/20 05:46:38;;;;;;;;;;;;;;;21.89;98.59;98691.20;1741485;81;21552;-85
2022/07/20 05:49:04;;;;;;;;;;;;;;;21.94;98.19;98692.88;1746069;80;26825;-85
2022/07/20 05:51:30;;;;;;;;;;;;;;;22.02;98.10;98693.36;1742685;81;20848;-84
2022/07/20 05:53:56;;;;;;;;;;;;;;;22.13;98.19;98682.81;1736244;81;20760;-84
2022/07/20 05:56:22;;;;;;;;;;;;;;;22.24;98.19;98679.75;1736936;81;20808;-84
2022/07/20 05:58:48;;;;;;;;;;;;;;;22.35;98.14;98683.36;1745489;80;20241;-84
2022/07/20 06:01:14;;;;;;;;;;;;;;;22.50;98.30;98684.26;1728319;81;21007;-84
2022/07/20 06:03:40;;;;;;;;;;;;;;;22.59;98.11;98677.85;1735827;81;24606;-84
2022/07/20 06:06:06;;;;;;;;;;;;;;;22.65;97.96;98678.48;1743841;80;20824;-84
2022/07/20 06:08:32;;;;;;;;;;;;;;;22.65;97.71;98678.98;1737131;80;24782;-84
2022/07/20 06:10:58;;;;;;;;;;;;;;;22.66;97.66;98684.15;1731740;81;21942;-84
2022/07/20 06:13:24;;;;;;;;;;;;;;;22.71;97.70;98689.81;1745402;81;26032;-84
2022/07/20 06:15:50;;;;;;;;;;;;;;;22.75;97.64;98685.77;1734148;81;20259;-84
2022/07/20 06:18:16;;;;;;;;;;;;;;;22.78;97.35;98685.44;1749711;81;20289;-84
2022/07/20 06:20:42;;;;;;;;;;;;;;;22.83;97.23;98687.06;1741402;81;24811;-84
2022/07/20 06:23:09;;;;;;;;;;;;;;;22.89;97.22;98693.02;1736693;81;22848;-84
2022/07/20 06:25:35;;;;;;;;;;;;;;;22.93;97.26;98692.15;1742268;81;25981;-84
2022/07/20 06:28:00;;;;;;;;;;;;;;;23.00;97.34;98690.94;1735514;81;20286;-84
2022/07/20 06:30:27;;;;;;;;;;;;;;;23.10;97.56;98691.01;1741916;81;20623;-84
2022/07/20 06:32:53;;;;;;;;;;;;;;;23.19;97.64;98693.92;1715487;81;24703;-84
2022/07/20 06:35:19;;;;;;;;;;;;;;;23.23;97.49;98697.08;1713443;82;20210;-84
2022/07/20 06:37:44;;;;;;;;;;;;;;;23.26;97.40;98695.38;1711619;82;21089;-84
2022/07/20 06:40:12;;;;;;;;;;;;;;;23.32;97.33;98691.98;1731775;81;20571;-84
2022/07/20 06:42:38;;;;;;;;;;;;;;;23.39;97.26;98694.25;1704784;83;20179;-84
2022/07/20 06:45:06;;;;;;;;;;;;;;;23.44;97.32;98694.53;1712918;82;20788;-84
2022/07/20 06:47:34;;;;;;;;;;;;;;;23.46;96.95;98692.52;1712462;82;22021;-84
2022/07/20 06:50:00;;;;;;;;;;;;;;;23.49;96.79;98700.19;1709541;82;26913;-84
2022/07/20 06:52:27;;;;;;;;;;;;;;;23.54;97.33;98704.48;1704714;82;20230;-84
2022/07/20 06:54:53;;;;;;;;;;;;;;;23.57;97.40;98699.26;1709567;82;20240;-84
2022/07/20 06:57:19;;;;;;;;;;;;;;;23.61;97.49;98702.74;1713027;82;20235;-84
2022/07/20 06:59:45;;;;;;;;;;;;;;;23.66;97.66;98705.70;1718628;82;21983;-84
2022/07/20 07:02:11;;;;;;;;;;;;;;;23.72;97.92;98704.97;1714352;82;25974;-84
2022/07/20 07:04:37;;;;;;;;;;;;;;;23.83;98.27;98713.53;1704790;83;24426;-84
2022/07/20 07:07:03;;;;;;;;;;;;;;;23.90;98.51;98711.76;1710392;82;20257;-84
2022/07/20 07:09:29;;;;;;;;;;;;;;;23.95;98.41;98715.53;1706153;82;20238;-84
2022/07/20 07:11:56;;;;;;;;;;;;;;;24.01;98.21;98711.29;1714010;82;22114;-84
2022/07/20 07:14:26;;;;;;;;;;;;;;;24.04;97.81;98715.78;1713334;82;26040;-84
2022/07/20 07:16:50;;;;;;;;;;;;;;;24.10;97.53;98715.55;1713949;82;24625;-84
2022/07/20 07:19:16;;;;;;;;;;;;;;;24.23;97.68;98717.06;1704388;82;20884;-84
2022/07/20 07:21:41;;;;;;;;;;;;;;;24.35;97.91;98712.90;1708813;82;20334;-84
2022/07/20 07:24:07;;;;;;;;;;;;;;;24.44;98.16;98714.94;1712500;82;20908;-84
2022/07/20 07:26:33;;;;;;;;;;;;;;;24.56;98.26;98712.10;1711439;82;20978;-84
2022/07/20 07:28:59;;;;;;;;;;;;;;;24.70;98.20;98717.94;1708049;82;20476;-84
2022/07/20 07:31:25;;;;;;;;;;;;;;;24.89;98.25;98711.97;1702399;83;20203;-84
2022/07/20 07:33:52;;;;;;;;;;;;;;;25.11;98.14;98714.64;1702020;84;20741;-84
2022/07/20 07:36:18;;;;;;;;;;;;;;;25.24;97.75;98718.27;1715821;82;22838;-84
2022/07/20 07:38:44;;;;;;;;;;;;;;;25.31;97.04;98720.47;1714125;82;21027;-84
2022/07/20 07:41:10;;;;;;;;;;;;;;;25.36;96.41;98724.77;1701921;83;24424;-84
2022/07/20 07:43:36;;;;;;;;;;;;;;;25.42;95.79;98721.80;1701947;83;20245;-84
2022/07/20 07:46:03;;;;;;;;;;;;;;;25.47;95.17;98725.26;1715178;82;24858;-84
2022/07/20 07:48:29;;;;;;;;;;;;;;;25.50;94.79;98727.02;1711959;82;22053;-84
2022/07/20 07:50:55;;;;;;;;;;;;;;;25.61;94.67;98729.70;1713413;82;25995;-85
2022/07/20 07:53:21;;;;;;;;;;;;;;;25.80;94.57;98731.71;1702223;84;24385;-85
2022/07/20 07:55:47;;;;;;;;;;;;;;;25.92;94.22;98727.94;1716176;82;20823;-84
2022/07/20 07:58:13;;;;;;;;;;;;;;;26.06;93.97;98729.17;1716178;82;20269;-84
2022/07/20 08:00:40;;;;;;;;;;;;;;;26.15;93.46;98725.80;1701403;84;21996;-84
2022/07/20 08:03:06;;;;;;;;;;;;;;;26.20;92.72;98726.86;1713834;82;26075;-86
2022/07/20 08:05:38;;;;;;;;;;;;;;;26.31;92.05;98724.66;1715979;82;25116;-86
2022/07/20 08:08:06;;;;;;;;;;;;;;;26.39;91.06;98725.33;1713184;82;20604;-86
2022/07/20 08:10:32;;;;;;;;;;;;;;;26.52;90.43;98725.36;1699221;83;24957;-85
2022/07/20 08:12:58;;;;;;;;;;;;;;;26.72;89.82;98717.89;1702141;84;21920;-85
2022/07/20 08:15:24;;;;;;;;;;;;;;;26.86;89.23;98717.70;1716007;82;21053;-85
2022/07/20 08:17:50;;;;;;;;;;;;;;;26.94;88.52;98714.88;1713939;82;20231;-85
2022/07/20 08:20:22;;;;;;;;;;;;;;;26.95;87.42;98715.16;1712525;82;20288;-85
2022/07/20 08:22:44;;;;;;;;;;;;;;;26.93;86.00;98722.61;1712010;82;25469;-85
2022/07/20 08:25:10;;;;;;;;;;;;;;;26.93;85.08;98715.90;1712921;82;21949;-85
2022/07/20 08:27:39;;;;;;;;;;;;;;;27.07;84.33;98715.38;1712499;82;26013;-85
2022/07/20 08:30:05;;;;;;;;;;;;;;;27.26;83.49;98711.06;1708993;82;25257;-85
2022/07/20 08:32:31;;;;;;;;;;;;;;;27.38;82.24;98704.04;1703218;83;20552;-85
2022/07/20 08:34:57;;;;;;;;;;;;;;;27.39;81.04;98703.80;1714493;82;24908;-85
2022/07/20 08:37:25;;;;;;;;;;;;;;;27.42;80.23;98704.75;1713005;81;22630;-85
2022/07/20 08:39:52;;;;;;;;;;;;;;;27.55;79.39;98703.92;1707150;82;26065;-85
2022/07/20 08:42:18;;;;;;;;;;;;;;;27.60;78.25;98703.32;1703283;83;24527;-85
2022/07/20 08:44:44;;;;;;;;;;;;;;;27.77;77.44;98703.98;1709476;82;20348;-85
2022/07/20 08:47:14;;;;;;;;;;;;;;;27.89;76.43;98698.28;1711199;82;24325;-85
2022/07/20 08:49:46;;;;;;;;;;;;;;;28.08;75.47;98710.03;1714799;82;22028;-85
2022/07/20 08:52:13;;;;;;;;;;;;;;;28.19;74.32;98701.84;1715716;82;26047;-85
2022/07/20 08:54:39;;;;;;;;;;;;;;;28.12;72.52;98703.20;1721086;82;20261;-85
2022/07/20 08:57:10;;;;;;;;;;;;;;;28.10;71.62;98703.06;1717743;82;20505;-84
2022/07/20 08:59:40;;;;;;;;;;;;;;;28.14;70.96;98703.00;1715179;82;24750;-84
2022/07/20 09:02:07;;;;;;;;;;;;;;;28.18;69.86;98702.88;1713529;82;22131;-84
2022/07/20 09:04:34;;;;;;;;;;;;;;;28.33;69.28;98703.43;1716050;82;26203;-84
2022/07/20 09:07:00;;;;;;;;;;;;;;;28.48;68.77;98699.10;1698671;83;24463;-84
2022/07/20 09:09:26;;;;;;;;;;;;;;;28.61;67.95;98698.53;1714238;82;20757;-85
2022/07/20 09:11:53;;;;;;;;;;;;;;;28.65;66.96;98695.70;1712023;82;20834;-84
2022/07/20 09:14:24;;;;;;;;;;;;;;;28.73;66.23;98703.26;1704658;82;22001;-84
2022/07/20 09:16:50;;;;;;;;;;;;;;;28.74;65.13;98692.80;1687426;82;26054;-85
2022/07/20 09:19:17;;;;;;;;;;;;;;;28.83;64.29;98693.66;1704697;82;20856;-84
2022/07/20 09:21:43;;;;;;;;;;;;;;;28.89;62.88;98694.66;1710212;82;20476;-84
2022/07/20 09:24:09;;;;;;;;;;;;;;;29.02;61.95;98699.41;1687897;82;20819;-84
2022/07/20 09:26:36;;;;;;;;;;;;;;;29.11;60.59;98695.42;1706094;82;22021;-84
2022/07/20 09:29:03;;;;;;;;;;;;;;;29.21;59.87;98686.84;1711779;82;26032;-84
2022/07/20 09:31:33;;;;;;;;;;;;;;;29.42;59.29;98698.61;1717047;82;24587;-84
2022/07/20 09:34:02;;;;;;;;;;;;;;;29.58;58.38;98699.08;1710555;82;20241;-84
2022/07/20 09:36:29;;;;;;;;;;;;;;;29.68;57.38;98694.00;1706109;82;24859;-85
2022/07/20 09:38:56;;;;;;;;;;;;;;;29.68;56.41;98699.39;1708985;82;21748;-85
2022/07/20 09:41:27;;;;;;;;;;;;;;;29.74;56.04;98691.76;1710760;82;25845;-86
2022/07/20 09:43:55;;;;;;;;;;;;;;;29.75;55.27;98692.06;1709472;82;24538;-85
2022/07/20 09:46:25;;;;;;;;;;;;;;;29.76;54.72;98693.72;1706195;82;20251;-85
2022/07/20 09:48:53;;;;;;;;;;;;;;;29.72;53.99;98687.95;1712430;82;24803;-85
2022/07/20 09:51:21;;;;;;;;;;;;;;;29.68;53.03;98689.95;1703570;82;22019;-85
2022/07/20 09:53:48;;;;;;;;;;;;;;;29.68;52.30;98688.08;1713657;82;26118;-85
2022/07/20 09:56:19;;;;;;;;;;;;;;;29.78;52.02;98687.06;1713588;82;24590;-85
2022/07/20 09:58:45;;;;;;;;;;;;;;;29.94;51.72;98692.42;1714657;82;20318;-85
2022/07/20 10:01:13;;;;;;;;;;;;;;;30.04;51.34;98684.62;1713564;82;25553;-85
2022/07/20 10:03:40;;;;;;;;;;;;;;;30.14;50.67;98683.55;1708462;82;21976;-85
2022/07/20 10:06:06;;;;;;;;;;;;;;;30.26;50.26;98680.39;1710835;82;26154;-85
2022/07/20 10:08:32;;;;;;;;;;;;;;;30.43;50.06;98684.64;1718009;82;23868;-85
2022/07/20 10:10:59;;;;;;;;;;;;;;;30.52;49.49;98676.55;1709649;82;20493;-85
2022/07/20 10:13:25;;;;;;;;;;;;;;;30.64;48.95;98672.54;1715329;82;24857;-85
2022/07/20 10:15:58;;;;;;;;;;;;;;;30.69;48.39;98669.44;1705435;83;22020;-85
2022/07/20 10:18:25;;;;;;;;;;;;;;;30.70;47.88;98676.50;1711135;82;26209;-85
2022/07/20 10:20:51;;;;;;;;;;;;;;;30.71;47.34;98676.77;1713174;82;24554;-84
2022/07/20 10:23:25;;;;;;;;;;;;;;;30.70;46.72;98675.16;1714511;82;20333;-84
2022/07/20 10:25:51;;;;;;;;;;;;;;;30.57;45.76;98673.98;1732117;81;23420;-85
2022/07/20 10:28:25;;;;;;;;;;;;;;;30.63;45.67;98669.53;1705234;83;21275;-85
2022/07/20 10:30:54;;;;;;;3.97;2.03;;;;;;;30.77;45.45;98672.88;1712832;82;26005;-85
2022/07/20 10:33:23;;;;;;;4.27;1.80;;;;;;;30.85;45.35;98661.72;1679906;82;28185;-85
2022/07/20 10:35:51;;;;;;;2.62;1.70;;;;;;;30.91;45.47;98672.96;1707352;82;28101;-85
2022/07/20 10:38:21;;;;;;;3.75;1.98;;;;;;;30.93;45.30;98672.22;1703378;82;28152;-85
2022/07/20 10:44:22;;;;;;;5.25;2.10;;;;;;;30.73;44.19;98669.80;1698156;82;28180;-85
2022/07/20 10:46:49;;;;;;;5.10;2.58;;;;;;;30.75;44.10;98663.12;1703617;82;28180;-85
2022/07/20 10:49:17;;;;;;;3.02;1.70;;;;;;;30.87;44.09;98667.73;1706159;82;28010;-85
2022/07/20 10:51:43;;;;;;;2.90;1.98;;;;;;;30.96;44.13;98663.10;1705343;82;28101;-85
2022/07/20 10:54:30;;;;;;;3.85;1.80;;;;;;;31.03;43.92;98658.98;1705871;82;28099;-85
2022/07/20 10:56:57;;;;;;;3.30;1.80;;;;;;;31.03;43.35;98657.63;1691835;82;28141;-85
2022/07/20 10:59:23;;;;;;;6.47;2.22;;;;;;;30.94;42.75;98657.09;1706199;82;28179;-85
2022/07/20 11:01:50;;;;;;;2.65;1.82;;;;;;;30.86;42.30;98652.56;1698786;82;28128;-85
2022/07/20 11:04:17;;;;;;;4.65;2.05;;;;;;;30.94;42.22;98657.09;1704302;82;28019;-85
2022/07/20 11:06:43;;;;;;;3.40;2.08;;;;;;;31.02;42.07;98650.53;1706766;82;28550;-85
2022/07/20 11:09:11;;;;;;;6.40;2.02;;;;;;;30.98;41.60;98650.19;1706921;82;28164;-86
2022/07/20 11:11:39;;;;;;;2.35;1.90;;;;;;;31.03;41.57;98648.99;1709817;82;28104;-86
2022/07/20 11:14:09;;;;;;;3.15;1.95;;;;;;;31.07;41.43;98643.41;1706428;82;28105;-86
2022/07/20 11:16:36;;;;;;;3.52;2.35;;;;;;;31.11;41.17;98644.58;1697485;82;28177;-86
2022/07/20 11:19:05;;;;;;;4.10;2.22;;;;;;;31.22;41.29;98642.11;1706817;82;28093;-86
2022/07/20 11:21:43;;;;;;;2.70;2.02;;;;;;;31.28;41.23;98638.47;1706189;82;28163;-86
2022/07/20 11:24:35;;;;;;;2.98;1.77;;;;;;;31.30;41.20;98632.31;1705263;82;28169;-86
2022/07/20 11:27:17;;;;;;;2.70;1.85;;;;;;;31.38;41.04;98640.88;1665971;82;28124;-85
2022/07/20 11:29:48;;;;;;;4.08;1.90;;;;;;;31.46;40.94;98642.42;1683012;82;28156;-85
2022/07/20 11:32:14;;;;;;;3.58;1.92;;;;;;;31.62;40.82;98638.20;1711590;82;28082;-85
2022/07/20 11:34:48;;;;;;;4.35;1.87;;;;;;;31.60;40.44;98638.95;1707699;82;28187;-85
2022/07/20 11:37:16;;;;;;;2.77;2.17;;;;;;;31.70;40.30;98640.00;1700042;82;28161;-85
2022/07/20 11:39:43;;;;;;;3.40;2.17;;;;;;;31.81;40.14;98643.22;1705922;82;28080;-85
2022/07/20 11:42:14;;;;;;;3.50;2.10;;;;;;;31.93;40.00;98638.60;1700987;82;28197;-85
2022/07/20 11:44:44;;;;;;;3.83;2.00;;;;;;;32.14;40.30;98642.57;1703936;82;28081;-86
2022/07/20 11:47:12;;;;;;;2.72;2.20;;;;;;;32.31;40.04;98648.05;1691681;82;28147;-85
2022/07/20 11:49:38;;;;;;;3.67;1.67;;;;;;;32.36;39.76;98646.79;1709826;82;28110;-85
2022/07/20 11:52:05;;;;;;;3.22;1.75;;;;;;;32.28;39.37;98648.55;1700161;82;28145;-84
2022/07/20 11:54:37;;;;;;;3.40;2.17;;;;;;;32.20;38.90;98642.97;1703465;82;28190;-85
2022/07/20 11:57:05;;;;;;;5.22;2.37;;;;;;;32.03;38.21;98643.92;1697733;83;28161;-85
2022/07/20 11:59:32;;;;;;;3.85;1.77;;;;;;;31.98;38.22;98644.65;1698904;82;28138;-85
2022/07/20 12:02:01;;;;;;;3.92;2.00;;;;;;;31.95;38.09;98645.97;1708629;82;28140;-85
2022/07/20 12:04:28;;;;;;;2.37;1.77;;;;;;;31.99;37.99;98646.30;1701614;82;28073;-85
2022/07/20 12:06:58;;;;;;;1.62;1.45;;;;;;;32.12;37.97;98641.19;1711130;82;28157;-85
2022/07/20 12:09:35;;;;;;;3.12;1.90;;;;;;;32.26;37.78;98639.83;1706029;82;28121;-85
2022/07/20 12:12:44;;;;;;;6.40;1.70;;;;;;;32.21;37.50;98638.38;1712728;82;28115;-86
2022/07/20 12:14:47;;;;;;;3.70;2.10;;;;;;;32.37;37.55;98632.19;1699652;82;28147;-86
2022/07/20 12:17:23;;;;;;;5.05;1.65;;;;;;;32.52;37.37;98634.34;1683307;84;28188;-85
2022/07/20 12:19:53;;;;;;;3.12;2.20;;;;;;;32.60;37.18;98629.37;1705182;82;28133;-85
2022/07/20 12:22:24;;;;;;;1.87;1.55;;;;;;;32.68;37.38;98633.05;1707554;82;28124;-85
2022/07/20 12:25:03;;;;;;;2.02;1.82;;;;;;;32.64;36.92;98627.80;1708039;82;28098;-85
2022/07/20 12:27:33;;;;;;;4.50;1.67;;;;;;;32.43;36.51;98623.09;1706960;82;28090;-85
2022/07/20 12:30:23;;;;;;;2.30;1.60;;;;;;;32.37;36.38;98619.46;1712857;82;28007;-85
2022/07/20 12:33:11;;;;;;;4.33;1.92;;;;;;;32.33;36.27;98619.66;1701414;82;28083;-85
2022/07/20 12:35:41;;;;;;;3.42;1.57;;;;;;;32.33;36.05;98615.60;1702015;83;28030;-85
2022/07/20 12:38:07;;;;;;;4.22;1.70;;;;;;;32.29;35.89;98614.45;1703064;83;28075;-85
2022/07/20 12:40:45;;;;;;;3.17;1.82;;;;;;;32.23;35.65;98614.59;1703655;83;28086;-85
2022/07/20 12:43:32;;;;;;;4.72;2.17;;;;;;;32.26;35.58;98615.45;1700641;83;28184;-85